Time,TemperatureF,DewpointF,PressureIn,WindDirection,WindDirectionDegrees,WindSpeedMPH,WindSpeedGustMPH,Humidity,HourlyPrecipIn,Conditions,Clouds,dailyrainin,SoftwareType,DateUTC
2013-10-06 00:12:00,71.4,66.0,30.06,SE,134,0.0,1.0,84,0.00,,,0.00,weatherlink.com 1.10,2013-10-06 04:12:00,
2013-10-06 00:27:00,71.2,67.0,30.06,South,169,1.0,3.0,85,0.00,,,0.00,weatherlink.com 1.10,2013-10-06 04:27:00,
2013-10-06 00:42:00,71.0,66.0,30.05,South,176,0.0,2.0,85,0.00,,,0.00,weatherlink.com 1.10,2013-10-06 04:42:00,
2013-10-06 00:57:00,70.6,66.0,30.05,SE,131,0.0,0.0,85,0.00,,,0.00,weatherlink.com 1.10,2013-10-06 04:57:00,
2013-10-06 01:12:00,70.1,66.0,30.05,SE,140,0.0,1.0,86,0.00,,,0.00,weatherlink.com 1.10,2013-10-06 05:12:00,
2013-10-06 01:27:00,69.6,66.0,30.05,SE,135,0.0,1.0,87,0.00,,,0.00,weatherlink.com 1.10,2013-10-06 05:27:00,
2013-10-06 01:42:00,69.4,66.0,30.05,SE,138,0.0,1.0,88,0.00,,,0.00,weatherlink.com 1.10,2013-10-06 05:42:00,
2013-10-06 01:57:00,69.2,66.0,30.05,SE,146,0.0,1.0,88,0.00,,,0.00,weatherlink.com 1.10,2013-10-06 05:57:00,
2013-10-06 02:12:00,68.9,65.0,30.05,East,96,0.0,1.0,88,0.00,,,0.00,weatherlink.com 1.10,2013-10-06 06:12:00,
2013-10-06 02:27:00,68.6,65.0,30.04,ESE,102,0.0,1.0,89,0.00,,,0.00,weatherlink.com 1.10,2013-10-06 06:27:00,
2013-10-06 02:43:00,68.4,65.0,30.04,SSE,157,0.0,1.0,89,0.00,,,0.00,weatherlink.com 1.10,2013-10-06 06:43:00,
2013-10-06 02:58:00,68.3,65.0,30.04,SSE,150,0.0,1.0,90,0.00,,,0.00,weatherlink.com 1.10,2013-10-06 06:58:00,
2013-10-06 03:13:00,68.3,65.0,30.03,South,177,0.0,1.0,90,0.00,,,0.00,weatherlink.com 1.10,2013-10-06 07:13:00,
2013-10-06 03:28:00,68.0,65.0,30.03,SE,136,0.0,0.0,90,0.00,,,0.00,weatherlink.com 1.10,2013-10-06 07:28:00,
2013-10-06 03:43:00,67.7,65.0,30.03,SE,141,0.0,0.0,91,0.00,,,0.00,weatherlink.com 1.10,2013-10-06 07:43:00,
2013-10-06 03:58:00,67.5,65.0,30.03,SE,136,0.0,1.0,91,0.00,,,0.00,weatherlink.com 1.10,2013-10-06 07:58:00,
2013-10-06 04:13:00,67.1,65.0,30.03,SE,136,0.0,0.0,91,0.00,,,0.00,weatherlink.com 1.10,2013-10-06 08:13:00,
2013-10-06 04:28:00,66.6,64.0,30.03,SE,137,0.0,0.0,91,0.00,,,0.00,weatherlink.com 1.10,2013-10-06 08:28:00,
2013-10-06 04:43:00,66.4,64.0,30.03,SE,136,0.0,1.0,92,0.00,,,0.00,weatherlink.com 1.10,2013-10-06 08:43:00,
2013-10-06 04:58:00,66.2,64.0,30.04,SE,136,0.0,0.0,92,0.00,,,0.00,weatherlink.com 1.10,2013-10-06 08:58:00,
2013-10-06 05:13:00,65.7,63.0,30.04,SE,137,0.0,0.0,92,0.00,,,0.00,weatherlink.com 1.10,2013-10-06 09:13:00,
2013-10-06 05:28:00,65.1,63.0,30.04,SE,136,0.0,0.0,92,0.00,,,0.00,weatherlink.com 1.10,2013-10-06 09:28:00,
2013-10-06 05:43:00,64.7,63.0,30.04,SE,137,0.0,0.0,93,0.00,,,0.00,weatherlink.com 1.10,2013-10-06 09:43:00,
2013-10-06 05:58:00,64.5,63.0,30.04,SE,137,0.0,0.0,93,0.00,,,0.00,weatherlink.com 1.10,2013-10-06 09:58:00,
2013-10-06 06:13:00,64.2,62.0,30.04,SE,137,0.0,0.0,93,0.00,,,0.00,weatherlink.com 1.10,2013-10-06 10:13:00,
2013-10-06 06:28:00,63.8,62.0,30.04,SE,136,0.0,0.0,93,0.00,,,0.00,weatherlink.com 1.10,2013-10-06 10:28:00,
2013-10-06 06:43:00,63.1,61.0,30.04,SE,137,0.0,0.0,93,0.00,,,0.00,weatherlink.com 1.10,2013-10-06 10:43:00,
2013-10-06 06:58:00,63.3,61.0,30.04,SE,137,0.0,0.0,93,0.00,,,0.00,weatherlink.com 1.10,2013-10-06 10:58:00,
2013-10-06 07:13:00,63.1,61.0,30.04,SE,136,0.0,0.0,93,0.00,,,0.00,weatherlink.com 1.10,2013-10-06 11:13:00,
2013-10-06 07:28:00,63.1,61.0,30.04,SE,137,0.0,0.0,94,0.00,,,0.00,weatherlink.com 1.10,2013-10-06 11:28:00,
2013-10-06 07:43:00,63.5,62.0,30.05,SE,137,0.0,0.0,94,0.00,,,0.00,weatherlink.com 1.10,2013-10-06 11:43:00,
2013-10-06 07:58:00,64.2,63.0,30.05,SE,137,0.0,0.0,94,0.00,,,0.00,weatherlink.com 1.10,2013-10-06 11:58:00,
2013-10-06 08:13:00,65.1,63.0,30.05,SE,136,0.0,0.0,94,0.00,,,0.00,weatherlink.com 1.10,2013-10-06 12:13:00,
2013-10-06 08:28:00,66.2,65.0,30.06,SE,137,0.0,1.0,94,0.00,,,0.00,weatherlink.com 1.10,2013-10-06 12:28:00,
2013-10-06 08:43:00,67.1,65.0,30.06,SSE,159,1.0,1.0,94,0.00,,,0.00,weatherlink.com 1.10,2013-10-06 12:43:00,
2013-10-06 08:58:00,67.7,66.0,30.06,SSE,158,0.0,2.0,94,0.00,,,0.00,weatherlink.com 1.10,2013-10-06 12:58:00,
2013-10-06 09:13:00,68.3,67.0,30.07,SSE,150,0.0,3.0,94,0.00,,,0.00,weatherlink.com 1.10,2013-10-06 13:13:00,
2013-10-06 09:28:00,68.9,67.0,30.07,South,177,0.0,4.0,94,0.00,,,0.00,weatherlink.com 1.10,2013-10-06 13:28:00,
2013-10-06 09:43:00,70.0,68.0,30.07,SE,146,1.0,2.0,94,0.00,,,0.00,weatherlink.com 1.10,2013-10-06 13:43:00,
2013-10-06 09:58:00,72.9,70.0,30.07,East,96,0.0,3.0,91,0.00,,,0.00,weatherlink.com 1.10,2013-10-06 13:58:00,
2013-10-06 10:13:00,74.6,70.0,30.07,ESE,121,1.0,4.0,86,0.00,,,0.00,weatherlink.com 1.10,2013-10-06 14:13:00,
2013-10-06 10:28:00,75.5,71.0,30.07,East,94,0.0,6.0,85,0.00,,,0.00,weatherlink.com 1.10,2013-10-06 14:28:00,
2013-10-06 10:43:00,76.5,71.0,30.06,NW,319,2.0,5.0,83,0.00,,,0.00,weatherlink.com 1.10,2013-10-06 14:43:00,
2013-10-06 10:58:00,77.4,71.0,30.06,SSE,161,0.0,6.0,81,0.00,,,0.00,weatherlink.com 1.10,2013-10-06 14:58:00,
2013-10-06 11:13:00,76.7,71.0,30.06,South,170,0.0,6.0,82,0.00,,,0.00,weatherlink.com 1.10,2013-10-06 15:13:00,
2013-10-06 11:28:00,76.0,70.0,30.06,South,190,2.0,6.0,82,0.00,,,0.00,weatherlink.com 1.10,2013-10-06 15:28:00,
2013-10-06 11:43:00,76.4,71.0,30.05,SE,139,1.0,6.0,83,0.00,,,0.00,weatherlink.com 1.10,2013-10-06 15:43:00,
2013-10-06 11:59:00,76.5,71.0,30.05,SSE,150,1.0,7.0,83,0.00,,,0.00,weatherlink.com 1.10,2013-10-06 15:59:00,
2013-10-06 12:14:00,77.2,71.0,30.05,East,95,0.0,2.0,82,0.00,,,0.00,weatherlink.com 1.10,2013-10-06 16:14:00,
2013-10-06 12:29:00,78.6,72.0,30.04,SSW,207,0.0,5.0,79,0.00,,,0.00,weatherlink.com 1.10,2013-10-06 16:29:00,
2013-10-06 12:44:00,78.6,72.0,30.03,SW,214,1.0,4.0,79,0.00,,,0.00,weatherlink.com 1.10,2013-10-06 16:44:00,
2013-10-06 12:59:00,78.4,71.0,30.02,SSE,165,0.0,4.0,79,0.00,,,0.00,weatherlink.com 1.10,2013-10-06 16:59:00,
2013-10-06 13:14:00,79.6,72.0,30.02,South,170,1.0,5.0,78,0.00,,,0.00,weatherlink.com 1.10,2013-10-06 17:14:00,
2013-10-06 13:29:00,80.1,72.0,30.01,SSE,162,2.0,5.0,75,0.00,,,0.00,weatherlink.com 1.10,2013-10-06 17:29:00,
2013-10-06 13:44:00,80.5,72.0,30.00,ENE,68,0.0,5.0,74,0.00,,,0.00,weatherlink.com 1.10,2013-10-06 17:44:00,
2013-10-06 13:59:00,80.4,71.0,30.00,SSE,156,3.0,6.0,74,0.00,,,0.00,weatherlink.com 1.10,2013-10-06 17:59:00,
2013-10-06 14:14:00,80.7,72.0,29.99,SSW,203,3.0,7.0,74,0.00,,,0.00,weatherlink.com 1.10,2013-10-06 18:14:00,
2013-10-06 14:29:00,82.2,71.0,29.99,SE,146,3.0,8.0,69,0.00,,,0.00,weatherlink.com 1.10,2013-10-06 18:29:00,
2013-10-06 14:44:00,83.1,72.0,29.98,WSW,245,0.0,6.0,69,0.00,,,0.00,weatherlink.com 1.10,2013-10-06 18:44:00,
2013-10-06 14:59:00,83.2,71.0,29.98,SSE,157,4.0,7.0,66,0.00,,,0.00,weatherlink.com 1.10,2013-10-06 18:59:00,
2013-10-06 15:14:00,83.8,71.0,29.97,SSW,193,1.0,7.0,65,0.00,,,0.00,weatherlink.com 1.10,2013-10-06 19:14:00,
2013-10-06 15:29:00,83.6,72.0,29.96,SSW,212,0.0,5.0,68,0.00,,,0.00,weatherlink.com 1.10,2013-10-06 19:29:00,
2013-10-06 15:44:00,82.8,72.0,29.96,East,101,1.0,6.0,69,0.00,,,0.00,weatherlink.com 1.10,2013-10-06 19:44:00,
2013-10-06 15:59:00,83.1,71.0,29.96,ENE,58,0.0,4.0,68,0.00,,,0.00,weatherlink.com 1.10,2013-10-06 19:59:00,
2013-10-06 16:14:00,82.3,72.0,29.95,SSE,160,1.0,4.0,70,0.00,,,0.00,weatherlink.com 1.10,2013-10-06 20:14:00,
2013-10-06 16:29:00,82.1,72.0,29.95,West,264,0.0,4.0,71,0.00,,,0.00,weatherlink.com 1.10,2013-10-06 20:29:00,
2013-10-06 16:44:00,81.6,72.0,29.95,SE,140,0.0,3.0,72,0.00,,,0.00,weatherlink.com 1.10,2013-10-06 20:44:00,
2013-10-06 16:59:00,81.5,72.0,29.95,ENE,60,0.0,5.0,72,0.00,,,0.00,weatherlink.com 1.10,2013-10-06 20:59:00,
2013-10-06 17:14:00,80.9,72.0,29.95,SE,124,0.0,4.0,74,0.00,,,0.00,weatherlink.com 1.10,2013-10-06 21:14:00,
2013-10-06 17:29:00,80.0,72.0,29.94,SE,138,0.0,7.0,76,0.00,,,0.00,weatherlink.com 1.10,2013-10-06 21:29:00,
2013-10-06 17:44:00,79.2,72.0,29.95,SE,129,8.0,8.0,78,0.00,,,0.00,weatherlink.com 1.10,2013-10-06 21:44:00,
2013-10-06 17:59:00,78.6,72.0,29.95,East,86,5.0,9.0,79,0.00,,,0.00,weatherlink.com 1.10,2013-10-06 21:59:00,
2013-10-06 18:14:00,78.4,72.0,29.94,South,174,0.0,4.0,80,0.00,,,0.00,weatherlink.com 1.10,2013-10-06 22:14:00,
2013-10-06 18:29:00,77.5,71.0,29.95,SE,143,1.0,3.0,81,0.00,,,0.00,weatherlink.com 1.10,2013-10-06 22:29:00,
2013-10-06 18:44:00,76.8,71.0,29.95,SW,214,2.0,4.0,82,0.00,,,0.00,weatherlink.com 1.10,2013-10-06 22:44:00,
2013-10-06 18:59:00,76.3,71.0,29.95,ESE,118,2.0,5.0,83,0.00,,,0.00,weatherlink.com 1.10,2013-10-06 22:59:00,
2013-10-06 19:14:00,75.9,70.0,29.95,SSE,153,0.0,3.0,83,0.00,,,0.00,weatherlink.com 1.10,2013-10-06 23:14:00,
2013-10-06 19:29:00,75.4,70.0,29.95,SSE,156,0.0,4.0,84,0.00,,,0.00,weatherlink.com 1.10,2013-10-06 23:29:00,
2013-10-06 19:44:00,74.9,70.0,29.95,SE,132,1.0,4.0,85,0.00,,,0.00,weatherlink.com 1.10,2013-10-06 23:44:00,
2013-10-06 19:59:00,74.5,70.0,29.95,ESE,122,0.0,5.0,86,0.00,,,0.00,weatherlink.com 1.10,2013-10-06 23:59:00,
2013-10-06 20:14:00,74.1,70.0,29.96,SSE,164,0.0,6.0,86,0.00,,,0.00,weatherlink.com 1.10,2013-10-07 00:14:00,
2013-10-06 20:29:00,74.1,70.0,29.96,SW,224,1.0,5.0,87,0.00,,,0.00,weatherlink.com 1.10,2013-10-07 00:29:00,
2013-10-06 20:44:00,74.1,70.0,29.96,NW,316,1.0,8.0,87,0.00,,,0.00,weatherlink.com 1.10,2013-10-07 00:44:00,
2013-10-06 20:59:00,73.9,70.0,29.96,SSE,156,0.0,7.0,87,0.00,,,0.00,weatherlink.com 1.10,2013-10-07 00:59:00,
2013-10-06 21:14:00,73.6,70.0,29.96,West,269,1.0,7.0,87,0.00,,,0.00,weatherlink.com 1.10,2013-10-07 01:14:00,
2013-10-06 21:29:00,73.4,70.0,29.96,NE,56,2.0,7.0,88,0.00,,,0.00,weatherlink.com 1.10,2013-10-07 01:29:00,
2013-10-06 21:44:00,73.3,70.0,29.96,ENE,65,4.0,7.0,88,0.00,,,0.00,weatherlink.com 1.10,2013-10-07 01:44:00,
2013-10-06 22:00:00,73.3,70.0,29.96,SSE,159,6.0,8.0,88,0.00,,,0.00,weatherlink.com 1.10,2013-10-07 02:00:00,
2013-10-06 22:15:00,73.2,70.0,29.96,SSE,165,0.0,6.0,89,0.00,,,0.00,weatherlink.com 1.10,2013-10-07 02:15:00,
2013-10-06 22:30:00,73.2,70.0,29.96,SE,131,2.0,8.0,89,0.00,,,0.00,weatherlink.com 1.10,2013-10-07 02:30:00,
2013-10-06 22:45:00,73.1,70.0,29.96,SE,131,6.0,7.0,89,0.00,,,0.00,weatherlink.com 1.10,2013-10-07 02:45:00,
2013-10-06 23:00:00,73.1,70.0,29.96,East,101,3.0,6.0,89,0.00,,,0.00,weatherlink.com 1.10,2013-10-07 03:00:00,
2013-10-06 23:15:00,73.0,70.0,29.95,SE,134,0.0,5.0,89,0.00,,,0.00,weatherlink.com 1.10,2013-10-07 03:15:00,
2013-10-06 23:30:00,72.8,70.0,29.95,SW,233,4.0,5.0,89,0.00,,,0.00,weatherlink.com 1.10,2013-10-07 03:30:00,
2013-10-06 23:45:00,72.8,70.0,29.95,SW,225,2.0,6.0,89,0.00,,,0.00,weatherlink.com 1.10,2013-10-07 03:45:00,